Terminal Aerodrome Forecast
Issued by NWS Brownsville, TX

Home | Current Version | Previous Version | Text Only | Print | Product List | Glossary On
Versions: 1 2 3 4 5 6 7 8 9 10 11 12 13 14 15 16 17 18 19
726
FTUS44 KBRO 191720
TAFHRL
TAF
KHRL 191720Z 1918/2018 17024G31KT P6SM SCT024
     FM200300 14015KT P6SM VCSH BKN015
     FM200600 19005KT 5SM BR VCTS OVC025CB
      TEMPO 2008/2012 VRB15G35KT 1SM +TSRA SQ OVC015CB
     FM201200 VRB05KT 4SM TSRA OVC015CB
     FM201500 17008KT P6SM VCTS OVC025CB=

USA.gov is the U.S. government's official web portal to all federal, state and local government web resources and services.